Time;durP1;ratioP1;P1;durP2;ratioP2;P2;SDS_P1;SDS_P2;PMS_P1;PMS_P2;Temp;Humidity;BMP_temperature;BMP_pressure;BME280_temperature;BME280_humidity;BME280_pressure;Samples;Min_cycle;Max_cycle;Signal;HPM_P1;HPM_P2
2023/04/16 00:01:00;;;;;;;;;;;;;;;;;;5116791;28;1030;-70
2023/04/16 00:03:25;;;;;;;;;;;;;;;;;;5116917;28;888;-70
2023/04/16 00:05:50;;;;;;;;;;;;;;;;;;5098437;28;1163;-70
2023/04/16 00:08:16;;;;;;;;;;;;;;;;;;5116605;28;816;-70
2023/04/16 00:10:41;;;;;;;;;;;;;;;;;;5116621;28;840;-70
2023/04/16 00:13:06;;;;;;;;;;;;;;;;;;5081715;28;1264;-70
2023/04/16 00:15:32;;;;;;;;;;;;;;;;;;5097977;28;1251;-70
2023/04/16 00:17:57;;;;;;;;;;;;;;;;;;5098115;28;1899;-70
2023/04/16 00:20:22;;;;;;;;;;;;;;;;;;5098362;28;1136;-70
2023/04/16 00:22:47;;;;;;;;;;;;;;;;;;5097341;28;885;-70
2023/04/16 00:25:13;;;;;;;;;;;;;;;;;;5098075;28;907;-70
2023/04/16 00:27:38;;;;;;;;;;;;;;;;;;5097440;28;1373;-70
2023/04/16 00:30:04;;;;;;;;;;;;;;;;;;5097676;28;1149;-70
2023/04/16 00:32:30;;;;;;;;;;;;;;;;;;5097211;28;1293;-70
2023/04/16 00:34:55;;;;;;;;;;;;;;;;;;5097417;28;821;-70
2023/04/16 00:37:20;;;;;;;;;;;;;;;;;;5115094;28;1974;-70
2023/04/16 00:39:45;;;;;;;;;;;;;;;;;;5115368;28;895;-70
2023/04/16 00:42:11;;;;;;;;;;;;;;;;;;5115445;28;884;-70
2023/04/16 00:44:36;;;;;;;;;;;;;;;;;;5097089;28;979;-70
2023/04/16 00:47:02;;;;;;;;;;;;;;;;;;5096383;28;1338;-71
2023/04/16 00:49:27;;;;;;;;;;;;;;;;;;5115147;28;1237;-71
2023/04/16 00:51:52;;;;;;;;;;;;;;;;;;5096971;28;1337;-70
2023/04/16 00:54:18;;;;;;;;;;;;;;;;;;5097161;28;1152;-70
2023/04/16 00:56:43;;;;;;;;;;;;;;;;;;5096873;28;1902;-70
2023/04/16 00:59:08;;;;;;;;;;;;;;;;;;5115287;28;908;-70
2023/04/16 01:01:34;;;;;;;;;;;;;;;;;;5080597;28;1461;-69
2023/04/16 01:03:59;;;;;;;;;;;;;;;;;;5096710;28;1171;-70
2023/04/16 01:06:25;;;;;;;;;;;;;;;;;;5097487;28;856;-70
2023/04/16 01:08:51;;;;;;;;;;;;;;;;;;5115034;28;848;-71
2023/04/16 01:11:16;;;;;;;;;;;;;;;;;;5096672;28;1144;-70
2023/04/16 01:13:41;;;;;;;;;;;;;;;;;;5114328;28;816;-70
2023/04/16 01:16:08;;;;;;;;;;;;;;;;;;5115312;28;1893;-71
2023/04/16 01:18:33;;;;;;;;;;;;;;;;;;5097044;28;1359;-70
2023/04/16 01:20:58;;;;;;;;;;;;;;;;;;5096544;28;998;-70
2023/04/16 01:23:23;;;;;;;;;;;;;;;;;;5115268;28;975;-71
2023/04/16 01:25:49;;;;;;;;;;;;;;;;;;5096794;28;852;-70
2023/04/16 01:28:14;;;;;;;;;;;;;;;;;;5098058;28;1179;-71
2023/04/16 01:30:40;;;;;;;;;;;;;;;;;;5122614;28;828;-70
2023/04/16 01:33:06;;;;;;;;;;;;;;;;;;5122324;28;848;-70
2023/04/16 01:35:31;;;;;;;;;;;;;;;;;;5096811;28;1325;-70
2023/04/16 01:37:56;;;;;;;;;;;;;;;;;;5114532;28;1970;-70
2023/04/16 01:40:21;;;;;;;;;;;;;;;;;;5114138;28;945;-70
2023/04/16 01:42:47;;;;;;;;;;;;;;;;;;5114301;28;888;-70
2023/04/16 01:45:12;;;;;;;;;;;;;;;;;;5096366;28;1199;-70
2023/04/16 01:47:37;;;;;;;;;;;;;;;;;;5114281;28;1015;-70
2023/04/16 01:50:03;;;;;;;;;;;;;;;;;;5096190;28;1013;-70
2023/04/16 01:52:29;;;;;;;;;;;;;;;;;;5114183;28;928;-70
2023/04/16 01:54:54;;;;;;;;;;;;;;;;;;5078909;28;1278;-70
2023/04/16 01:57:19;;;;;;;;;;;;;;;;;;5095870;28;2036;-70
2023/04/16 01:59:44;;;;;;;;;;;;;;;;;;5112999;28;1292;-70
2023/04/16 02:02:10;;;;;;;;;;;;;;;;;;5095821;28;900;-71
2023/04/16 02:04:37;;;;;;;;;;;;;;;;;;5113852;28;896;-70
2023/04/16 02:07:02;;;;;;;;;;;;;;;;;;5095421;28;884;-70
2023/04/16 02:09:27;;;;;;;;;;;;;;;;;;5113507;28;1199;-69
2023/04/16 02:11:53;;;;;;;;;;;;;;;;;;5095337;28;848;-69
2023/04/16 02:14:18;;;;;;;;;;;;;;;;;;5113296;28;888;-69
2023/04/16 02:16:43;;;;;;;;;;;;;;;;;;5094919;28;1939;-69
2023/04/16 02:19:09;;;;;;;;;;;;;;;;;;5095180;28;1188;-69
2023/04/16 02:21:34;;;;;;;;;;;;;;;;;;5113072;28;844;-69
2023/04/16 02:23:59;;;;;;;;;;;;;;;;;;5113432;28;800;-71
2023/04/16 02:26:25;;;;;;;;;;;;;;;;;;5094866;28;1171;-71
2023/04/16 02:28:50;;;;;;;;;;;;;;;;;;5113139;28;907;-70
2023/04/16 02:31:18;;;;;;;;;;;;;;;;;;5094616;28;1176;-71
2023/04/16 02:33:44;;;;;;;;;;;;;;;;;;5095262;28;1223;-71
2023/04/16 02:36:10;;;;;;;;;;;;;;;;;;5095229;28;1955;-71
2023/04/16 02:38:36;;;;;;;;;;;;;;;;;;5095638;28;872;-71
2023/04/16 02:41:01;;;;;;;;;;;;;;;;;;5113505;28;797;-71
2023/04/16 02:43:26;;;;;;;;;;;;;;;;;;5094952;28;1210;-71
2023/04/16 02:45:52;;;;;;;;;;;;;;;;;;5095164;28;1183;-71
2023/04/16 02:48:17;;;;;;;;;;;;;;;;;;5113088;28;1010;-71
2023/04/16 02:50:42;;;;;;;;;;;;;;;;;;5078295;28;1238;-71
2023/04/16 02:53:09;;;;;;;;;;;;;;;;;;5095320;28;1052;-70
2023/04/16 02:55:34;;;;;;;;;;;;;;;;;;5095214;28;908;-71
2023/04/16 02:58:00;;;;;;;;;;;;;;;;;;5094531;28;1964;-70
2023/04/16 03:00:25;;;;;;;;;;;;;;;;;;5094974;28;1202;-70
2023/04/16 03:02:50;;;;;;;;;;;;;;;;;;5094628;28;1192;-71
2023/04/16 03:05:16;;;;;;;;;;;;;;;;;;5094597;28;907;-70
2023/04/16 03:07:41;;;;;;;;;;;;;;;;;;5095216;28;1139;-70
2023/04/16 03:10:07;;;;;;;;;;;;;;;;;;5096053;28;904;-70
2023/04/16 03:12:32;;;;;;;;;;;;;;;;;;5099177;28;825;-70
2023/04/16 03:14:57;;;;;;;;;;;;;;;;;;5117555;28;955;-70
2023/04/16 03:17:22;;;;;;;;;;;;;;;;;;5117034;28;1914;-70
2023/04/16 03:19:49;;;;;;;;;;;;;;;;;;5098848;28;1223;-70
2023/04/16 03:22:15;;;;;;;;;;;;;;;;;;5082245;28;1444;-70
2023/04/16 03:24:40;;;;;;;;;;;;;;;;;;5082122;28;1113;-71
2023/04/16 03:27:05;;;;;;;;;;;;;;;;;;5116984;28;1010;-71
2023/04/16 03:29:31;;;;;;;;;;;;;;;;;;5116691;28;840;-70
2023/04/16 03:31:56;;;;;;;;;;;;;;;;;;5116645;28;828;-70
2023/04/16 03:34:21;;;;;;;;;;;;;;;;;;5116975;28;832;-70
2023/04/16 03:36:47;;;;;;;;;;;;;;;;;;5116761;28;1889;-70
2023/04/16 03:39:12;;;;;;;;;;;;;;;;;;5081489;28;1204;-70
2023/04/16 03:41:37;;;;;;;;;;;;;;;;;;5116582;28;829;-70
2023/04/16 03:44:03;;;;;;;;;;;;;;;;;;5116631;28;908;-70
2023/04/16 03:46:28;;;;;;;;;;;;;;;;;;5116438;28;885;-70
2023/04/16 03:48:53;;;;;;;;;;;;;;;;;;5098298;28;1318;-71
2023/04/16 03:51:19;;;;;;;;;;;;;;;;;;5116338;28;1155;-70
2023/04/16 03:53:44;;;;;;;;;;;;;;;;;;5098663;28;1219;-71
2023/04/16 03:56:10;;;;;;;;;;;;;;;;;;5116198;28;1906;-70
2023/04/16 03:58:35;;;;;;;;;;;;;;;;;;5116338;28;895;-70
2023/04/16 04:01:00;;;;;;;;;;;;;;;;;;5116350;28;915;-70
2023/04/16 04:03:25;;;;;;;;;;;;;;;;;;5116321;28;919;-71
2023/04/16 04:05:51;;;;;;;;;;;;;;;;;;5116688;28;836;-71
2023/04/16 04:08:16;;;;;;;;;;;;;;;;;;5116372;28;959;-70
2023/04/16 04:10:41;;;;;;;;;;;;;;;;;;5098235;28;1174;-70
2023/04/16 04:13:07;;;;;;;;;;;;;;;;;;5080757;28;1228;-70
2023/04/16 04:15:32;;;;;;;;;;;;;;;;;;5098196;28;1058;-70
2023/04/16 04:17:58;;;;;;;;;;;;;;;;;;5116353;28;1889;-71
2023/04/16 04:20:23;;;;;;;;;;;;;;;;;;5116365;28;1170;-70
2023/04/16 04:22:51;;;;;;;;;;;;;;;;;;5114886;28;1059;-70
2023/04/16 04:25:16;;;;;;;;;;;;;;;;;;5097558;28;1283;-70
2023/04/16 04:27:42;;;;;;;;;;;;;;;;;;5115965;28;979;-70
2023/04/16 04:30:07;;;;;;;;;;;;;;;;;;5115910;28;883;-72
2023/04/16 04:32:32;;;;;;;;;;;;;;;;;;5116529;28;863;-71
2023/04/16 04:35:02;;;;;;;;;;;;;;;;;;5115304;28;1014;-71
2023/04/16 04:37:27;;;;;;;;;;;;;;;;;;5114683;28;1956;-70
2023/04/16 04:39:53;;;;;;;;;;;;;;;;;;5088383;28;1203;-71
2023/04/16 04:42:19;;;;;;;;;;;;;;;;;;5095978;28;1156;-70
2023/04/16 04:44:44;;;;;;;;;;;;;;;;;;5114992;28;1337;-70
2023/04/16 04:47:10;;;;;;;;;;;;;;;;;;5115102;28;907;-70
2023/04/16 04:49:35;;;;;;;;;;;;;;;;;;5097358;28;1227;-70
2023/04/16 04:52:00;;;;;;;;;;;;;;;;;;5115056;28;1061;-70
2023/04/16 04:54:27;;;;;;;;;;;;;;;;;;5097110;28;1329;-70
2023/04/16 04:56:52;;;;;;;;;;;;;;;;;;5097375;28;1910;-71
2023/04/16 04:59:18;;;;;;;;;;;;;;;;;;5096870;28;1195;-70
2023/04/16 05:01:44;;;;;;;;;;;;;;;;;;5097104;28;1210;-69
2023/04/16 05:04:09;;;;;;;;;;;;;;;;;;5096674;28;864;-70
2023/04/16 05:06:35;;;;;;;;;;;;;;;;;;5115128;28;975;-70
2023/04/16 05:09:00;;;;;;;;;;;;;;;;;;5114531;28;884;-70
2023/04/16 05:11:25;;;;;;;;;;;;;;;;;;5096488;28;1010;-70
2023/04/16 05:13:51;;;;;;;;;;;;;;;;;;5114650;28;1007;-70
2023/04/16 05:16:16;;;;;;;;;;;;;;;;;;5096157;28;1894;-71
2023/04/16 05:18:41;;;;;;;;;;;;;;;;;;5080014;28;1310;-70
2023/04/16 05:21:06;;;;;;;;;;;;;;;;;;5096209;28;1278;-71
2023/04/16 05:23:32;;;;;;;;;;;;;;;;;;5114585;28;944;-70
2023/04/16 05:25:57;;;;;;;;;;;;;;;;;;5096407;28;857;-71
2023/04/16 05:28:22;;;;;;;;;;;;;;;;;;5114372;28;809;-70
2023/04/16 05:30:48;;;;;;;;;;;;;;;;;;5096290;28;1184;-70
2023/04/16 05:33:13;;;;;;;;;;;;;;;;;;5096211;28;1042;-70
2023/04/16 05:35:38;;;;;;;;;;;;;;;;;;5095896;28;1346;-70
2023/04/16 05:38:04;;;;;;;;;;;;;;;;;;5114264;28;1877;-70
2023/04/16 05:40:30;;;;;;;;;;;;;;;;;;5114218;28;875;-70
2023/04/16 05:42:55;;;;;;;;;;;;;;;;;;5114627;28;916;-70
2023/04/16 05:45:21;;;;;;;;;;;;;;;;;;5095830;28;919;-70
2023/04/16 05:47:46;;;;;;;;;;;;;;;;;;5095866;28;1370;-70
2023/04/16 05:50:11;;;;;;;;;;;;;;;;;;5075735;28;1397;-71
2023/04/16 05:52:37;;;;;;;;;;;;;;;;;;5093639;28;1278;-71
2023/04/16 05:55:02;;;;;;;;;;;;;;;;;;5095449;28;1265;-71
2023/04/16 05:57:28;;;;;;;;;;;;;;;;;;5135183;27;1917;-71
2023/04/16 05:59:54;;;;;;;;;;;;;;;;;;5134504;27;1147;-71
2023/04/16 06:02:19;;;;;;;;;;;;;;;;;;5099143;27;1202;-70
2023/04/16 06:04:45;;;;;;;;;;;;;;;;;;5092297;28;1173;-70
2023/04/16 06:07:10;;;;;;;;;;;;;;;;;;5095204;28;1338;-70
2023/04/16 06:09:35;;;;;;;;;;;;;;;;;;5094514;28;1218;-71
2023/04/16 06:12:01;;;;;;;;;;;;;;;;;;5112908;28;836;-71
2023/04/16 06:14:26;;;;;;;;;;;;;;;;;;5095268;28;797;-71
2023/04/16 06:16:51;;;;;;;;;;;;;;;;;;5113709;28;1911;-71
2023/04/16 06:19:17;;;;;;;;;;;;;;;;;;5094946;28;1255;-70
2023/04/16 06:21:42;;;;;;;;;;;;;;;;;;5113418;28;841;-70
2023/04/16 06:24:07;;;;;;;;;;;;;;;;;;5095596;28;1507;-71
2023/04/16 06:26:32;;;;;;;;;;;;;;;;;;5113754;28;939;-71
2023/04/16 06:28:58;;;;;;;;;;;;;;;;;;5095508;28;1202;-71
2023/04/16 06:31:23;;;;;;;;;;;;;;;;;;5113064;28;808;-71
2023/04/16 06:33:48;;;;;;;;;;;;;;;;;;5095354;28;1257;-71
2023/04/16 06:36:15;;;;;;;;;;;;;;;;;;5113147;28;1964;-71
2023/04/16 06:38:40;;;;;;;;;;;;;;;;;;5094905;28;1432;-70
2023/04/16 06:41:06;;;;;;;;;;;;;;;;;;5113059;28;919;-70
2023/04/16 06:43:32;;;;;;;;;;;;;;;;;;5113460;28;836;-72
2023/04/16 06:45:57;;;;;;;;;;;;;;;;;;5094450;28;1211;-70
2023/04/16 06:48:23;;;;;;;;;;;;;;;;;;5094409;28;1111;-71
2023/04/16 06:50:48;;;;;;;;;;;;;;;;;;5113186;28;1266;-70
2023/04/16 06:53:14;;;;;;;;;;;;;;;;;;5113341;28;903;-71
2023/04/16 06:55:39;;;;;;;;;;;;;;;;;;5113210;28;868;-71
2023/04/16 06:58:04;;;;;;;;;;;;;;;;;;5095393;28;1917;-72
2023/04/16 07:00:30;;;;;;;;;;;;;;;;;;5113226;28;864;-71
2023/04/16 07:02:55;;;;;;;;;;;;;;;;;;5095356;28;1191;-70
2023/04/16 07:05:20;;;;;;;;;;;;;;;;;;5112895;28;825;-72
2023/04/16 07:07:45;;;;;;;;;;;;;;;;;;5095268;28;1278;-72
2023/04/16 07:10:11;;;;;;;;;;;;;;;;;;5113842;28;888;-71
2023/04/16 07:12:36;;;;;;;;;;;;;;;;;;5095374;28;1411;-72
2023/04/16 07:15:01;;;;;;;;;;;;;;;;;;5096187;28;1333;-66
2023/04/16 07:17:27;;;;;;;;;;;;;;;;;;5094122;28;1910;-66
2023/04/16 07:19:52;;;;;;;;;;;;;;;;;;5094592;28;1204;-66
2023/04/16 07:22:17;;;;;;;;;;;;;;;;;;5077526;28;1440;-66
2023/04/16 07:24:43;;;;;;;;;;;;;;;;;;5112487;28;881;-66
2023/04/16 07:27:08;;;;;;;;;;;;;;;;;;5112737;28;971;-65
2023/04/16 07:29:33;;;;;;;;;;;;;;;;;;5094950;28;904;-66
2023/04/16 07:31:59;;;;;;;;;;;;;;;;;;5094602;28;1081;-66
2023/04/16 07:34:24;;;;;;;;;;;;;;;;;;5112578;28;808;-65
2023/04/16 07:36:50;;;;;;;;;;;;;;;;;;5113029;28;1909;-66
2023/04/16 07:39:15;;;;;;;;;;;;;;;;;;5113372;28;1051;-65
2023/04/16 07:41:42;;;;;;;;;;;;;;;;;;5094691;28;1418;-66
2023/04/16 07:44:07;;;;;;;;;;;;;;;;;;5113167;28;901;-66
2023/04/16 07:46:33;;;;;;;;;;;;;;;;;;5112577;28;924;-65
2023/04/16 07:48:58;;;;;;;;;;;;;;;;;;5094385;28;1210;-66
2023/04/16 07:51:23;;;;;;;;;;;;;;;;;;5112011;28;1064;-66
2023/04/16 07:53:48;;;;;;;;;;;;;;;;;;5112708;28;950;-65
2023/04/16 07:56:14;;;;;;;;;;;;;;;;;;5113785;28;1910;-66
2023/04/16 07:58:39;;;;;;;;;;;;;;;;;;5116446;28;860;-66
2023/04/16 08:01:04;;;;;;;;;;;;;;;;;;5117100;28;900;-66
2023/04/16 08:03:30;;;;;;;;;;;;;;;;;;5115793;28;828;-66
2023/04/16 08:05:55;;;;;;;;;;;;;;;;;;5115720;28;908;-65
2023/04/16 08:08:20;;;;;;;;;;;;;;;;;;5097575;28;1360;-66
2023/04/16 08:10:46;;;;;;;;;;;;;;;;;;5097460;28;1250;-65
2023/04/16 08:13:11;;;;;;;;;;;;;;;;;;5097610;28;892;-66
2023/04/16 08:15:37;;;;;;;;;;;;;;;;;;5097318;28;1331;-66
2023/04/16 08:18:04;;;;;;;;;;;;;;;;;;5097546;28;1889;-66
2023/04/16 08:20:30;;;;;;;;;;;;;;;;;;5080422;28;1238;-66
2023/04/16 08:22:55;;;;;;;;;;;;;;;;;;5115608;28;956;-66
2023/04/16 08:25:23;;;;;;;;;;;;;;;;;;5115147;28;855;-65
2023/04/16 08:27:48;;;;;;;;;;;;;;;;;;5097895;28;931;-66
2023/04/16 08:30:15;;;;;;;;;;;;;;;;;;5115232;28;1014;-66
2023/04/16 08:32:40;;;;;;;;;;;;;;;;;;5080863;28;1330;-65
2023/04/16 08:35:05;;;;;;;;;;;;;;;;;;5096929;28;1195;-66
2023/04/16 08:37:31;;;;;;;;;;;;;;;;;;5114944;28;1890;-66
2023/04/16 08:39:56;;;;;;;;;;;;;;;;;;5096819;28;1182;-66
2023/04/16 08:42:29;;;;;;;;;;;;;;;;;;5079909;28;1254;-65
2023/04/16 08:45:02;;;;;;;;;;;;;;;;;;5097247;28;1480;-65
2023/04/16 08:47:27;;;;;;;;;;;;;;;;;;5096105;28;1149;-66
2023/04/16 08:49:54;;;;;;;;;;;;;;;;;;5114774;28;1331;-66
2023/04/16 08:52:22;;;;;;;;;;;;;;;;;;5114704;28;1019;-66
2023/04/16 08:54:56;;;;;;;;;;;;;;;;;;5096611;28;1210;-66
2023/04/16 08:57:22;;;;;;;;;;;;;;;;;;5096869;28;1906;-66
2023/04/16 08:59:49;;;;;;;;;;;;;;;;;;5114996;28;978;-66
2023/04/16 09:02:15;;;;;;;;;;;;;;;;;;5115540;28;840;-66
2023/04/16 09:04:41;;;;;;;;;;;;;;;;;;5097134;28;1269;-67
2023/04/16 09:07:07;;;;;;;;;;;;;;;;;;5114823;28;860;-66
2023/04/16 09:09:32;;;;;;;;;;;;;;;;;;5114726;28;916;-66
2023/04/16 09:11:58;;;;;;;;;;;;;;;;;;5115923;28;875;-67
2023/04/16 09:14:23;;;;;;;;;;;;;;;;;;5114968;28;852;-66
2023/04/16 09:16:51;;;;;;;;;;;;;;;;;;5115069;28;1968;-66
2023/04/16 09:19:20;;;;;;;;;;;;;;;;;;5096495;28;1194;-66
2023/04/16 09:21:46;;;;;;;;;;;;;;;;;;5115065;28;955;-66
2023/04/16 09:24:11;;;;;;;;;;;;;;;;;;5115346;28;1022;-66
2023/04/16 09:26:37;;;;;;;;;;;;;;;;;;5114114;28;899;-66
2023/04/16 09:29:03;;;;;;;;;;;;;;;;;;5114870;28;856;-66
2023/04/16 09:31:28;;;;;;;;;;;;;;;;;;5113868;28;1234;-66
2023/04/16 09:34:11;;;;;;;;;;;;;;;;;;5076490;28;1218;-66
2023/04/16 09:36:37;;;;;;;;;;;;;;;;;;5096269;27;1901;-66
2023/04/16 09:39:02;;;;;;;;;;;;;;;;;;5108874;27;1237;-66
2023/04/16 09:41:31;;;;;;;;;;;;;;;;;;5133084;27;1214;-66
2023/04/16 09:43:58;;;;;;;;;;;;;;;;;;5134624;27;903;-66
2023/04/16 09:46:28;;;;;;;;;;;;;;;;;;5134192;27;884;-64
2023/04/16 09:48:53;;;;;;;;;;;;;;;;;;5134682;27;919;-65
2023/04/16 09:51:19;;;;;;;;;;;;;;;;;;5134124;27;1199;-65
2023/04/16 09:53:44;;;;;;;;;;;;;;;;;;5116381;27;855;-65
2023/04/16 09:56:10;;;;;;;;;;;;;;;;;;5116024;27;1937;-65
2023/04/16 09:58:36;;;;;;;;;;;;;;;;;;5116459;27;1202;-65
2023/04/16 10:01:04;;;;;;;;;;;;;;;;;;5117632;27;947;-66
2023/04/16 10:03:30;;;;;;;;;;;;;;;;;;5108616;27;1273;-66
2023/04/16 10:05:58;;;;;;;;;;;;;;;;;;5074124;28;1224;-65
2023/04/16 10:08:23;;;;;;;;;;;;;;;;;;5094005;28;930;-65
2023/04/16 10:10:49;;;;;;;;;;;;;;;;;;5093607;28;955;-64
2023/04/16 10:13:16;;;;;;;;;;;;;;;;;;5093637;28;828;-65
2023/04/16 10:15:42;;;;;;;;;;;;;;;;;;5093878;28;840;-65
2023/04/16 10:18:07;;;;;;;;;;;;;;;;;;5093106;28;1938;-66
2023/04/16 10:20:32;;;;;;;;;;;;;;;;;;5091182;28;1190;-66
2023/04/16 10:22:58;;;;;;;;;;;;;;;;;;5104536;27;1245;-68
2023/04/16 10:25:24;;;;;;;;;;;;;;;;;;5094230;28;1286;-67
2023/04/16 10:27:49;;;;;;;;;;;;;;;;;;5109226;28;1195;-68
2023/04/16 10:30:15;;;;;;;;;;;;;;;;;;5099138;28;1352;-67
2023/04/16 10:32:41;;;;;;;;;;;;;;;;;;5114562;28;860;-68
2023/04/16 10:35:06;;;;;;;;;;;;;;;;;;5113537;28;950;-67
2023/04/16 10:37:32;;;;;;;;;;;;;;;;;;5112697;28;1914;-68
2023/04/16 10:39:58;;;;;;;;;;;;;;;;;;5096667;28;1198;-66
2023/04/16 10:42:24;;;;;;;;;;;;;;;;;;5114713;28;892;-66
2023/04/16 10:44:49;;;;;;;;;;;;;;;;;;5113860;28;924;-66
2023/04/16 10:47:16;;;;;;;;;;;;;;;;;;5113093;28;905;-66
2023/04/16 10:49:42;;;;;;;;;;;;;;;;;;5114014;28;1061;-67
2023/04/16 10:52:17;;;;;;;;;;;;;;;;;;5114343;28;844;-67
2023/04/16 10:54:43;;;;;;;;;;;;;;;;;;5095185;28;1155;-69
2023/04/16 10:57:09;;;;;;;;;;;;;;;;;;5095698;28;1901;-68
2023/04/16 10:59:35;;;;;;;;;;;;;;;;;;5113919;28;876;-67
2023/04/16 11:02:05;;;;;;;;;;;;;;;;;;5114719;28;895;-68
2023/04/16 11:04:34;;;;;;;;;;;;;;;;;;5113879;28;844;-68
2023/04/16 11:07:04;;;;;;;;;;;;;;;;;;5113751;28;806;-68
2023/04/16 11:09:49;;;;;;;;;;;;;;;;;;5113249;28;833;-68
2023/04/16 11:12:15;;;;;;;;;;;;;;;;;;5095464;28;1298;-68
2023/04/16 11:14:41;;;;;;;;;;;;;;;;;;5113530;28;840;-68
2023/04/16 11:17:06;;;;;;;;;;;;;;;;;;5113843;28;1959;-68
2023/04/16 11:19:34;;;;;;;;;;;;;;;;;;5113145;28;891;-68
2023/04/16 11:22:00;;;;;;;;;;;;;;;;;;5110089;28;1195;-70
2023/04/16 11:24:28;;;;;;;;;;;;;;;;;;5092699;28;1142;-68
2023/04/16 11:26:54;;;;;;;;;;;;;;;;;;5091768;28;1220;-68
2023/04/16 11:29:19;;;;;;;;;;;;;;;;;;5093679;28;912;-68
2023/04/16 11:31:51;;;;;;;;;;;;;;;;;;5095199;28;883;-67
2023/04/16 11:34:17;;;;;;;;;;;;;;;;;;5097366;28;1005;-67
2023/04/16 11:36:43;;;;;;;;;;;;;;;;;;5096666;28;1910;-64
2023/04/16 11:39:08;;;;;;;;;;;;;;;;;;5097416;28;875;-65
2023/04/16 11:41:34;;;;;;;;;;;;;;;;;;5096005;28;1258;-65
2023/04/16 11:44:00;;;;;;;;;;;;;;;;;;5097633;28;789;-66
2023/04/16 11:46:45;;;;;;;;;;;;;;;;;;5097945;28;893;-67
2023/04/16 11:49:11;;;;;;;;;;;;;;;;;;5095671;28;1371;-70
2023/04/16 11:51:40;;;;;;;;;;;;;;;;;;5115122;28;1266;-68
2023/04/16 11:54:06;;;;;;;;;;;;;;;;;;5117910;28;855;-68
2023/04/16 11:56:33;;;;;;;;;;;;;;;;;;5099182;28;1974;-67
2023/04/16 11:59:06;;;;;;;;;;;;;;;;;;5115854;28;1243;-67
2023/04/16 12:01:32;;;;;;;;;;;;;;;;;;5117835;28;1025;-67
2023/04/16 12:04:00;;;;;;;;;;;;;;;;;;5117856;28;983;-66
2023/04/16 12:06:26;;;;;;;;;;;;;;;;;;5117217;28;848;-64
2023/04/16 12:08:51;;;;;;;;;;;;;;;;;;5097804;28;1174;-70
2023/04/16 12:11:16;;;;;;;;;;;;;;;;;;5115366;28;864;-71
2023/04/16 12:13:41;;;;;;;;;;;;;;;;;;5116408;28;864;-68
2023/04/16 12:16:18;;;;;;;;;;;;;;;;;;5116634;28;848;-67
2023/04/16 12:19:03;;;;;;;;;;;;;;;;;;5116085;28;951;-68
2023/04/16 12:21:41;;;;;;;;;;;;;;;;;;5116510;28;824;-67
2023/04/16 12:24:07;;;;;;;;;;;;;;;;;;5115716;28;978;-67
2023/04/16 12:26:37;;;;;;;;;;;;;;;;;;5097263;28;1220;-67
2023/04/16 12:29:21;;;;;;;;;;;;;;;;;;5116068;28;896;-68
2023/04/16 12:31:47;;;;;;;;;;;;;;;;;;5116055;28;919;-67
2023/04/16 12:34:16;;;;;;;;;;;;;;;;;;5116466;28;804;-67
2023/04/16 12:36:42;;;;;;;;;;;;;;;;;;5115805;28;1910;-67
2023/04/16 12:39:09;;;;;;;;;;;;;;;;;;5116156;28;908;-67
2023/04/16 12:41:35;;;;;;;;;;;;;;;;;;5097533;28;1171;-67
2023/04/16 12:44:02;;;;;;;;;;;;;;;;;;5114741;28;959;-68
2023/04/16 12:46:27;;;;;;;;;;;;;;;;;;5097707;28;1263;-68
2023/04/16 12:48:53;;;;;;;;;;;;;;;;;;5097409;28;810;-67
2023/04/16 12:51:18;;;;;;;;;;;;;;;;;;5115423;28;1237;-67
2023/04/16 12:53:43;;;;;;;;;;;;;;;;;;5097170;28;892;-67
2023/04/16 12:56:09;;;;;;;;;;;;;;;;;;5115233;28;876;-67
2023/04/16 12:58:34;;;;;;;;;;;;;;;;;;5115837;28;1910;-68
2023/04/16 13:00:59;;;;;;;;;;;;;;;;;;5115052;28;773;-67
2023/04/16 13:03:25;;;;;;;;;;;;;;;;;;5097052;28;1222;-67
2023/04/16 13:05:50;;;;;;;;;;;;;;;;;;5114546;28;903;-68
2023/04/16 13:08:15;;;;;;;;;;;;;;;;;;5096152;28;1293;-67
2023/04/16 13:10:41;;;;;;;;;;;;;;;;;;5114147;28;828;-67
2023/04/16 13:13:06;;;;;;;;;;;;;;;;;;5096248;28;1225;-68
2023/04/16 13:15:31;;;;;;;;;;;;;;;;;;5096962;28;876;-67
2023/04/16 13:17:57;;;;;;;;;;;;;;;;;;5114470;28;1898;-67
2023/04/16 13:20:22;;;;;;;;;;;;;;;;;;5096398;28;1345;-68
2023/04/16 13:22:47;;;;;;;;;;;;;;;;;;5114533;28;848;-67
2023/04/16 13:25:13;;;;;;;;;;;;;;;;;;5114951;28;932;-68
2023/04/16 13:27:38;;;;;;;;;;;;;;;;;;5114908;28;923;-67
2023/04/16 13:30:03;;;;;;;;;;;;;;;;;;5115094;28;844;-68
2023/04/16 13:32:29;;;;;;;;;;;;;;;;;;5113348;28;895;-68
2023/04/16 13:34:54;;;;;;;;;;;;;;;;;;5112650;28;903;-67
2023/04/16 13:37:20;;;;;;;;;;;;;;;;;;5077622;28;1965;-68
2023/04/16 13:39:46;;;;;;;;;;;;;;;;;;5112487;28;899;-67
2023/04/16 13:42:14;;;;;;;;;;;;;;;;;;5095040;28;845;-67
2023/04/16 13:44:39;;;;;;;;;;;;;;;;;;5112725;28;809;-67
2023/04/16 13:47:05;;;;;;;;;;;;;;;;;;5095507;28;958;-67
2023/04/16 13:49:32;;;;;;;;;;;;;;;;;;5114304;28;1199;-67
2023/04/16 13:51:57;;;;;;;;;;;;;;;;;;5095489;28;1459;-68
2023/04/16 13:54:22;;;;;;;;;;;;;;;;;;5078770;28;1179;-68
2023/04/16 13:56:48;;;;;;;;;;;;;;;;;;5113653;28;1969;-67
2023/04/16 13:59:15;;;;;;;;;;;;;;;;;;5096012;28;1179;-67
2023/04/16 14:01:40;;;;;;;;;;;;;;;;;;5078708;28;1506;-68
2023/04/16 14:04:06;;;;;;;;;;;;;;;;;;5078875;28;1285;-68
2023/04/16 14:06:31;;;;;;;;;;;;;;;;;;5114192;28;911;-67
2023/04/16 14:08:57;;;;;;;;;;;;;;;;;;5113487;28;833;-67
2023/04/16 14:11:22;;;;;;;;;;;;;;;;;;5113985;28;1030;-67
2023/04/16 14:13:48;;;;;;;;;;;;;;;;;;5113914;28;896;-67
2023/04/16 14:16:13;;;;;;;;;;;;;;;;;;5095877;28;1248;-67
2023/04/16 14:18:41;;;;;;;;;;;;;;;;;;5113859;28;1981;-67
2023/04/16 14:21:06;;;;;;;;;;;;;;;;;;5112672;28;1099;-68
2023/04/16 14:23:32;;;;;;;;;;;;;;;;;;5078460;28;1200;-67
2023/04/16 14:25:57;;;;;;;;;;;;;;;;;;5078502;28;1227;-68
2023/04/16 14:28:22;;;;;;;;;;;;;;;;;;5113413;28;987;-67
2023/04/16 14:30:48;;;;;;;;;;;;;;;;;;5113597;28;773;-68
2023/04/16 14:33:13;;;;;;;;;;;;;;;;;;5095908;28;1441;-68
2023/04/16 14:35:39;;;;;;;;;;;;;;;;;;5095243;28;1330;-68
2023/04/16 14:38:04;;;;;;;;;;;;;;;;;;5094774;28;1892;-67
2023/04/16 14:40:29;;;;;;;;;;;;;;;;;;5112081;28;1187;-67
2023/04/16 14:42:54;;;;;;;;;;;;;;;;;;5113639;28;844;-67
2023/04/16 14:45:20;;;;;;;;;;;;;;;;;;5113503;28;884;-68
2023/04/16 14:47:46;;;;;;;;;;;;;;;;;;5094840;28;1085;-68
2023/04/16 14:50:12;;;;;;;;;;;;;;;;;;5095073;28;1397;-68
2023/04/16 14:52:37;;;;;;;;;;;;;;;;;;5113471;28;844;-67
2023/04/16 14:55:04;;;;;;;;;;;;;;;;;;5113388;28;880;-68
2023/04/16 14:57:29;;;;;;;;;;;;;;;;;;5113536;28;1914;-67
2023/04/16 14:59:55;;;;;;;;;;;;;;;;;;5113582;28;918;-68
2023/04/16 15:02:20;;;;;;;;;;;;;;;;;;5095601;28;813;-67
2023/04/16 15:04:46;;;;;;;;;;;;;;;;;;5094914;28;1077;-66
2023/04/16 15:07:11;;;;;;;;;;;;;;;;;;5100688;28;1132;-68
2023/04/16 15:09:36;;;;;;;;;;;;;;;;;;5101379;28;1001;-67
2023/04/16 15:12:01;;;;;;;;;;;;;;;;;;5119705;28;869;-67
2023/04/16 15:14:27;;;;;;;;;;;;;;;;;;5120277;28;934;-67
2023/04/16 15:16:52;;;;;;;;;;;;;;;;;;5101060;28;1901;-67
2023/04/16 15:19:18;;;;;;;;;;;;;;;;;;5102073;28;824;-67
2023/04/16 15:21:43;;;;;;;;;;;;;;;;;;5119424;28;853;-67
2023/04/16 15:24:08;;;;;;;;;;;;;;;;;;5119645;28;880;-67
2023/04/16 15:26:34;;;;;;;;;;;;;;;;;;5119372;28;876;-67
2023/04/16 15:29:02;;;;;;;;;;;;;;;;;;5119650;28;836;-67
2023/04/16 15:31:27;;;;;;;;;;;;;;;;;;5100880;28;1203;-68
2023/04/16 15:33:53;;;;;;;;;;;;;;;;;;5119704;28;959;-67
2023/04/16 15:36:19;;;;;;;;;;;;;;;;;;5120100;28;801;-67
2023/04/16 15:38:44;;;;;;;;;;;;;;;;;;5119770;28;1898;-67
2023/04/16 15:41:10;;;;;;;;;;;;;;;;;;5101028;28;1109;-67
2023/04/16 15:43:38;;;;;;;;;;;;;;;;;;5119770;28;821;-67
2023/04/16 15:46:03;;;;;;;;;;;;;;;;;;5119604;28;913;-67
2023/04/16 15:48:29;;;;;;;;;;;;;;;;;;5101642;28;853;-67
2023/04/16 15:50:54;;;;;;;;;;;;;;;;;;5119151;28;1281;-67
2023/04/16 15:53:20;;;;;;;;;;;;;;;;;;5101279;28;1354;-67
2023/04/16 15:55:45;;;;;;;;;;;;;;;;;;5084656;28;1275;-67
2023/04/16 15:58:11;;;;;;;;;;;;;;;;;;5119698;28;1976;-67
2023/04/16 16:00:37;;;;;;;;;;;;;;;;;;5101706;28;1505;-67
2023/04/16 16:03:02;;;;;;;;;;;;;;;;;;5119947;28;836;-67
2023/04/16 16:05:27;;;;;;;;;;;;;;;;;;5119658;28;888;-67
2023/04/16 16:07:53;;;;;;;;;;;;;;;;;;5119819;28;903;-68
2023/04/16 16:10:19;;;;;;;;;;;;;;;;;;5119885;28;919;-66
2023/04/16 16:12:45;;;;;;;;;;;;;;;;;;5119894;28;1086;-66
2023/04/16 16:15:10;;;;;;;;;;;;;;;;;;5101602;28;1216;-67
2023/04/16 16:17:36;;;;;;;;;;;;;;;;;;5118557;28;1901;-67
2023/04/16 16:20:02;;;;;;;;;;;;;;;;;;5116445;28;916;-67
2023/04/16 16:22:28;;;;;;;;;;;;;;;;;;5116642;28;891;-67
2023/04/16 16:24:54;;;;;;;;;;;;;;;;;;5116274;28;844;-67
2023/04/16 16:27:20;;;;;;;;;;;;;;;;;;5116506;28;876;-67
2023/04/16 16:29:46;;;;;;;;;;;;;;;;;;5116575;28;875;-67
2023/04/16 16:32:11;;;;;;;;;;;;;;;;;;5098031;28;825;-67
2023/04/16 16:34:37;;;;;;;;;;;;;;;;;;5097642;28;1262;-64
2023/04/16 16:37:03;;;;;;;;;;;;;;;;;;5080911;28;1974;-67
2023/04/16 16:39:28;;;;;;;;;;;;;;;;;;5097773;28;1331;-67
2023/04/16 16:41:55;;;;;;;;;;;;;;;;;;5115979;28;868;-67
2023/04/16 16:44:21;;;;;;;;;;;;;;;;;;5081118;28;1450;-66
2023/04/16 16:46:46;;;;;;;;;;;;;;;;;;5097156;28;1277;-66
2023/04/16 16:49:12;;;;;;;;;;;;;;;;;;5097675;28;1211;-67
2023/04/16 16:51:37;;;;;;;;;;;;;;;;;;5093897;28;1097;-67
2023/04/16 16:54:03;;;;;;;;;;;;;;;;;;5077503;28;1296;-68
2023/04/16 16:56:28;;;;;;;;;;;;;;;;;;5093644;28;1925;-67
2023/04/16 16:58:53;;;;;;;;;;;;;;;;;;5095002;28;840;-67
2023/04/16 17:01:18;;;;;;;;;;;;;;;;;;5093499;28;1293;-67